sensor_id;sensor_type;location;lat;lon;timestamp;P1;durP1;ratioP1;P2;durP2;ratioP2
7563;SDS011;3823;53.586;10.040;2022-08-01T00:01:52;12.63;;;11.35;;
7563;SDS011;3823;53.586;10.040;2022-08-01T00:04:17;11.13;;;10.13;;
7563;SDS011;3823;53.586;10.040;2022-08-01T00:06:43;9.77;;;9.07;;
7563;SDS011;3823;53.586;10.040;2022-08-01T00:09:08;11.38;;;10.38;;
7563;SDS011;3823;53.586;10.040;2022-08-01T00:11:34;10.43;;;9.63;;
7563;SDS011;3823;53.586;10.040;2022-08-01T00:13:59;13.25;;;11.95;;
7563;SDS011;3823;53.586;10.040;2022-08-01T00:16:25;12.65;;;11.52;;
7563;SDS011;3823;53.586;10.040;2022-08-01T00:18:51;11.23;;;10.23;;
7563;SDS011;3823;53.586;10.040;2022-08-01T00:21:17;11.15;;;10.05;;
7563;SDS011;3823;53.586;10.040;2022-08-01T00:23:42;12.68;;;11.48;;
7563;SDS011;3823;53.586;10.040;2022-08-01T00:26:10;11.43;;;9.95;;
7563;SDS011;3823;53.586;10.040;2022-08-01T00:28:36;9.60;;;8.77;;
7563;SDS011;3823;53.586;10.040;2022-08-01T00:31:01;10.18;;;9.35;;
7563;SDS011;3823;53.586;10.040;2022-08-01T00:33:27;9.70;;;8.77;;
7563;SDS011;3823;53.586;10.040;2022-08-01T00:35:52;11.13;;;10.02;;
7563;SDS011;3823;53.586;10.040;2022-08-01T00:38:18;12.15;;;11.13;;
7563;SDS011;3823;53.586;10.040;2022-08-01T00:40:44;9.82;;;8.90;;
7563;SDS011;3823;53.586;10.040;2022-08-01T00:43:09;9.63;;;8.55;;
7563;SDS011;3823;53.586;10.040;2022-08-01T00:45:35;10.82;;;9.82;;
7563;SDS011;3823;53.586;10.040;2022-08-01T00:48:00;11.18;;;10.07;;
7563;SDS011;3823;53.586;10.040;2022-08-01T00:50:26;13.77;;;9.38;;
7563;SDS011;3823;53.586;10.040;2022-08-01T00:52:52;11.32;;;9.75;;
7563;SDS011;3823;53.586;10.040;2022-08-01T00:55:19;10.30;;;9.25;;
7563;SDS011;3823;53.586;10.040;2022-08-01T00:57:45;10.25;;;9.25;;
7563;SDS011;3823;53.586;10.040;2022-08-01T01:00:12;11.10;;;10.10;;
7563;SDS011;3823;53.586;10.040;2022-08-01T01:02:38;10.18;;;9.18;;
7563;SDS011;3823;53.586;10.040;2022-08-01T01:05:04;10.35;;;8.60;;
7563;SDS011;3823;53.586;10.040;2022-08-01T01:13:12;9.63;;;8.73;;
7563;SDS011;3823;53.586;10.040;2022-08-01T01:15:43;9.80;;;8.95;;
7563;SDS011;3823;53.586;10.040;2022-08-01T01:20:44;10.32;;;9.30;;
7563;SDS011;3823;53.586;10.040;2022-08-01T01:23:40;7.50;;;6.90;;
7563;SDS011;3823;53.586;10.040;2022-08-01T01:31:32;8.77;;;8.05;;
7563;SDS011;3823;53.586;10.040;2022-08-01T01:34:05;9.57;;;8.63;;
7563;SDS011;3823;53.586;10.040;2022-08-01T01:36:32;10.70;;;8.32;;
7563;SDS011;3823;53.586;10.040;2022-08-01T01:38:59;9.13;;;8.25;;
7563;SDS011;3823;53.586;10.040;2022-08-01T01:41:26;8.70;;;8.00;;
7563;SDS011;3823;53.586;10.040;2022-08-01T01:43:53;8.65;;;7.85;;
7563;SDS011;3823;53.586;10.040;2022-08-01T01:46:21;9.90;;;8.43;;
7563;SDS011;3823;53.586;10.040;2022-08-01T01:48:49;10.10;;;9.15;;
7563;SDS011;3823;53.586;10.040;2022-08-01T01:51:16;9.00;;;8.20;;
7563;SDS011;3823;53.586;10.040;2022-08-01T01:53:43;9.07;;;8.18;;
7563;SDS011;3823;53.586;10.040;2022-08-01T01:56:10;9.50;;;8.70;;
7563;SDS011;3823;53.586;10.040;2022-08-01T01:58:39;11.32;;;8.73;;
7563;SDS011;3823;53.586;10.040;2022-08-01T02:01:06;9.48;;;8.13;;
7563;SDS011;3823;53.586;10.040;2022-08-01T02:03:33;11.25;;;9.45;;
7563;SDS011;3823;53.586;10.040;2022-08-01T02:06:01;10.05;;;9.05;;
7563;SDS011;3823;53.586;10.040;2022-08-01T02:08:28;10.02;;;8.35;;
7563;SDS011;3823;53.586;10.040;2022-08-01T02:10:55;11.40;;;8.77;;
7563;SDS011;3823;53.586;10.040;2022-08-01T02:13:46;10.48;;;8.73;;
7563;SDS011;3823;53.586;10.040;2022-08-01T02:16:17;12.40;;;8.27;;
7563;SDS011;3823;53.586;10.040;2022-08-01T02:18:45;9.93;;;9.00;;
7563;SDS011;3823;53.586;10.040;2022-08-01T02:21:12;9.23;;;8.43;;
7563;SDS011;3823;53.586;10.040;2022-08-01T02:23:41;8.35;;;7.43;;
7563;SDS011;3823;53.586;10.040;2022-08-01T02:26:09;11.10;;;8.52;;
7563;SDS011;3823;53.586;10.040;2022-08-01T02:28:49;15.15;;;8.02;;
7563;SDS011;3823;53.586;10.040;2022-08-01T02:31:22;8.57;;;7.88;;
7563;SDS011;3823;53.586;10.040;2022-08-01T02:34:02;9.27;;;7.50;;
7563;SDS011;3823;53.586;10.040;2022-08-01T02:36:32;7.38;;;6.70;;
7563;SDS011;3823;53.586;10.040;2022-08-01T02:39:07;7.88;;;7.18;;
7563;SDS011;3823;53.586;10.040;2022-08-01T02:41:38;9.25;;;7.75;;
7563;SDS011;3823;53.586;10.040;2022-08-01T02:44:07;12.00;;;8.02;;
7563;SDS011;3823;53.586;10.040;2022-08-01T02:46:39;6.93;;;6.32;;
7563;SDS011;3823;53.586;10.040;2022-08-01T02:49:09;7.50;;;6.88;;
7563;SDS011;3823;53.586;10.040;2022-08-01T02:51:36;7.32;;;6.72;;
7563;SDS011;3823;53.586;10.040;2022-08-01T02:54:06;7.63;;;6.88;;
7563;SDS011;3823;53.586;10.040;2022-08-01T02:56:32;7.53;;;6.80;;
7563;SDS011;3823;53.586;10.040;2022-08-01T02:59:01;7.00;;;6.32;;
7563;SDS011;3823;53.586;10.040;2022-08-01T03:01:32;9.82;;;6.47;;
7563;SDS011;3823;53.586;10.040;2022-08-01T03:04:00;7.88;;;7.10;;
7563;SDS011;3823;53.586;10.040;2022-08-01T03:06:26;8.55;;;7.47;;
7563;SDS011;3823;53.586;10.040;2022-08-01T03:08:53;7.25;;;6.53;;
7563;SDS011;3823;53.586;10.040;2022-08-01T03:11:20;7.80;;;6.82;;
7563;SDS011;3823;53.586;10.040;2022-08-01T03:13:49;7.78;;;7.20;;
7563;SDS011;3823;53.586;10.040;2022-08-01T03:16:16;12.15;;;7.78;;
7563;SDS011;3823;53.586;10.040;2022-08-01T03:18:43;7.13;;;6.43;;
7563;SDS011;3823;53.586;10.040;2022-08-01T03:21:10;8.80;;;6.03;;
7563;SDS011;3823;53.586;10.040;2022-08-01T03:23:38;7.00;;;6.40;;
7563;SDS011;3823;53.586;10.040;2022-08-01T03:26:06;6.55;;;5.97;;
7563;SDS011;3823;53.586;10.040;2022-08-01T03:28:33;10.80;;;5.72;;
7563;SDS011;3823;53.586;10.040;2022-08-01T03:31:00;6.22;;;5.63;;
7563;SDS011;3823;53.586;10.040;2022-08-01T03:33:26;6.70;;;6.20;;
7563;SDS011;3823;53.586;10.040;2022-08-01T03:35:53;6.70;;;6.10;;
7563;SDS011;3823;53.586;10.040;2022-08-01T03:38:20;7.03;;;6.40;;
7563;SDS011;3823;53.586;10.040;2022-08-01T03:43:51;5.95;;;5.55;;
7563;SDS011;3823;53.586;10.040;2022-08-01T03:46:29;6.60;;;5.30;;
7563;SDS011;3823;53.586;10.040;2022-08-01T03:49:00;6.00;;;4.70;;
7563;SDS011;3823;53.586;10.040;2022-08-01T03:51:30;6.20;;;5.43;;
7563;SDS011;3823;53.586;10.040;2022-08-01T03:53:57;5.38;;;4.97;;
7563;SDS011;3823;53.586;10.040;2022-08-01T03:56:25;5.07;;;4.25;;
7563;SDS011;3823;53.586;10.040;2022-08-01T03:58:52;5.93;;;4.78;;
7563;SDS011;3823;53.586;10.040;2022-08-01T04:01:18;5.05;;;4.65;;
7563;SDS011;3823;53.586;10.040;2022-08-01T04:03:44;5.10;;;4.70;;
7563;SDS011;3823;53.586;10.040;2022-08-01T04:06:10;5.05;;;4.63;;
7563;SDS011;3823;53.586;10.040;2022-08-01T04:08:38;5.47;;;5.07;;
7563;SDS011;3823;53.586;10.040;2022-08-01T04:11:07;4.40;;;3.90;;
7563;SDS011;3823;53.586;10.040;2022-08-01T04:13:33;4.50;;;4.20;;
7563;SDS011;3823;53.586;10.040;2022-08-01T04:15:59;4.28;;;4.00;;
7563;SDS011;3823;53.586;10.040;2022-08-01T04:18:24;7.55;;;4.68;;
7563;SDS011;3823;53.586;10.040;2022-08-01T04:20:50;4.85;;;4.45;;
7563;SDS011;3823;53.586;10.040;2022-08-01T04:23:16;5.35;;;4.95;;
7563;SDS011;3823;53.586;10.040;2022-08-01T04:25:45;5.35;;;4.90;;
7563;SDS011;3823;53.586;10.040;2022-08-01T04:28:12;5.88;;;5.20;;
7563;SDS011;3823;53.586;10.040;2022-08-01T04:30:41;6.13;;;4.30;;
7563;SDS011;3823;53.586;10.040;2022-08-01T04:33:09;6.43;;;5.43;;
7563;SDS011;3823;53.586;10.040;2022-08-01T04:35:38;7.95;;;4.93;;
7563;SDS011;3823;53.586;10.040;2022-08-01T04:38:06;5.85;;;5.00;;
7563;SDS011;3823;53.586;10.040;2022-08-01T04:40:34;5.38;;;4.97;;
7563;SDS011;3823;53.586;10.040;2022-08-01T04:43:01;5.20;;;4.80;;
7563;SDS011;3823;53.586;10.040;2022-08-01T04:45:27;5.65;;;4.88;;
7563;SDS011;3823;53.586;10.040;2022-08-01T04:47:53;11.98;;;4.63;;
7563;SDS011;3823;53.586;10.040;2022-08-01T04:50:19;6.57;;;4.68;;
7563;SDS011;3823;53.586;10.040;2022-08-01T04:52:49;4.13;;;3.83;;
7563;SDS011;3823;53.586;10.040;2022-08-01T04:55:15;4.38;;;3.95;;
7563;SDS011;3823;53.586;10.040;2022-08-01T04:57:42;4.05;;;3.75;;
7563;SDS011;3823;53.586;10.040;2022-08-01T05:00:10;5.35;;;4.05;;
7563;SDS011;3823;53.586;10.040;2022-08-01T05:02:36;4.25;;;4.00;;
7563;SDS011;3823;53.586;10.040;2022-08-01T05:05:02;3.83;;;3.60;;
7563;SDS011;3823;53.586;10.040;2022-08-01T05:07:28;4.57;;;2.90;;
7563;SDS011;3823;53.586;10.040;2022-08-01T05:09:53;2.10;;;2.00;;
7563;SDS011;3823;53.586;10.040;2022-08-01T05:12:19;2.38;;;2.17;;
7563;SDS011;3823;53.586;10.040;2022-08-01T05:14:45;2.65;;;2.55;;
7563;SDS011;3823;53.586;10.040;2022-08-01T05:17:11;3.35;;;2.05;;
7563;SDS011;3823;53.586;10.040;2022-08-01T05:19:37;2.22;;;2.13;;
7563;SDS011;3823;53.586;10.040;2022-08-01T05:22:04;3.10;;;1.58;;
7563;SDS011;3823;53.586;10.040;2022-08-01T05:24:31;1.77;;;1.67;;
7563;SDS011;3823;53.586;10.040;2022-08-01T05:26:58;2.10;;;1.50;;
7563;SDS011;3823;53.586;10.040;2022-08-01T05:29:24;1.52;;;1.42;;
7563;SDS011;3823;53.586;10.040;2022-08-01T05:31:51;2.05;;;1.67;;
7563;SDS011;3823;53.586;10.040;2022-08-01T05:34:17;1.40;;;1.30;;
7563;SDS011;3823;53.586;10.040;2022-08-01T05:36:43;3.60;;;1.65;;
7563;SDS011;3823;53.586;10.040;2022-08-01T05:39:09;2.60;;;1.80;;
7563;SDS011;3823;53.586;10.040;2022-08-01T05:41:35;1.58;;;1.48;;
7563;SDS011;3823;53.586;10.040;2022-08-01T05:44:01;2.00;;;1.90;;
7563;SDS011;3823;53.586;10.040;2022-08-01T05:46:28;4.05;;;2.30;;
7563;SDS011;3823;53.586;10.040;2022-08-01T05:48:55;3.63;;;1.50;;
7563;SDS011;3823;53.586;10.040;2022-08-01T05:51:21;3.53;;;1.95;;
7563;SDS011;3823;53.586;10.040;2022-08-01T05:53:47;4.07;;;1.60;;
7563;SDS011;3823;53.586;10.040;2022-08-01T05:56:12;1.88;;;1.77;;
7563;SDS011;3823;53.586;10.040;2022-08-01T05:58:38;2.25;;;1.88;;
7563;SDS011;3823;53.586;10.040;2022-08-01T06:01:04;2.13;;;1.90;;
7563;SDS011;3823;53.586;10.040;2022-08-01T06:03:29;1.80;;;1.70;;
7563;SDS011;3823;53.586;10.040;2022-08-01T06:05:56;2.38;;;2.13;;
7563;SDS011;3823;53.586;10.040;2022-08-01T06:08:22;2.70;;;2.50;;
7563;SDS011;3823;53.586;10.040;2022-08-01T06:10:47;6.18;;;1.90;;
7563;SDS011;3823;53.586;10.040;2022-08-01T06:13:13;3.03;;;2.03;;
7563;SDS011;3823;53.586;10.040;2022-08-01T06:15:39;5.03;;;1.77;;
7563;SDS011;3823;53.586;10.040;2022-08-01T06:18:05;2.60;;;1.80;;
7563;SDS011;3823;53.586;10.040;2022-08-01T06:20:31;5.25;;;1.88;;
7563;SDS011;3823;53.586;10.040;2022-08-01T06:22:56;3.20;;;2.40;;
7563;SDS011;3823;53.586;10.040;2022-08-01T06:25:22;3.05;;;2.10;;
7563;SDS011;3823;53.586;10.040;2022-08-01T06:27:48;3.55;;;2.97;;
7563;SDS011;3823;53.586;10.040;2022-08-01T06:30:14;4.50;;;3.30;;
7563;SDS011;3823;53.586;10.040;2022-08-01T06:32:40;3.95;;;2.10;;
7563;SDS011;3823;53.586;10.040;2022-08-01T06:35:06;3.88;;;2.60;;
7563;SDS011;3823;53.586;10.040;2022-08-01T06:37:32;4.82;;;2.58;;
7563;SDS011;3823;53.586;10.040;2022-08-01T06:40:05;6.40;;;3.10;;
7563;SDS011;3823;53.586;10.040;2022-08-01T06:42:32;6.95;;;4.32;;
7563;SDS011;3823;53.586;10.040;2022-08-01T06:45:06;5.47;;;4.30;;
7563;SDS011;3823;53.586;10.040;2022-08-01T06:47:33;8.48;;;4.70;;
7563;SDS011;3823;53.586;10.040;2022-08-01T06:49:59;14.20;;;5.35;;
7563;SDS011;3823;53.586;10.040;2022-08-01T06:52:24;9.05;;;5.05;;
7563;SDS011;3823;53.586;10.040;2022-08-01T06:54:50;7.28;;;4.28;;
7563;SDS011;3823;53.586;10.040;2022-08-01T06:57:16;5.90;;;5.30;;
7563;SDS011;3823;53.586;10.040;2022-08-01T06:59:42;8.52;;;7.28;;
7563;SDS011;3823;53.586;10.040;2022-08-01T07:02:08;6.78;;;6.18;;
7563;SDS011;3823;53.586;10.040;2022-08-01T07:04:34;8.77;;;6.15;;
7563;SDS011;3823;53.586;10.040;2022-08-01T07:06:59;7.15;;;6.53;;
7563;SDS011;3823;53.586;10.040;2022-08-01T07:09:25;7.55;;;6.90;;
7563;SDS011;3823;53.586;10.040;2022-08-01T07:11:51;7.55;;;6.07;;
7563;SDS011;3823;53.586;10.040;2022-08-01T07:14:18;10.65;;;6.60;;
7563;SDS011;3823;53.586;10.040;2022-08-01T07:16:44;7.88;;;6.45;;
7563;SDS011;3823;53.586;10.040;2022-08-01T07:19:10;9.55;;;7.13;;
7563;SDS011;3823;53.586;10.040;2022-08-01T07:21:35;12.70;;;6.47;;
7563;SDS011;3823;53.586;10.040;2022-08-01T07:24:01;14.02;;;6.20;;
7563;SDS011;3823;53.586;10.040;2022-08-01T07:26:27;7.03;;;6.15;;
7563;SDS011;3823;53.586;10.040;2022-08-01T07:28:52;6.97;;;6.28;;
7563;SDS011;3823;53.586;10.040;2022-08-01T07:31:18;11.40;;;5.88;;
7563;SDS011;3823;53.586;10.040;2022-08-01T07:33:44;11.18;;;6.15;;
7563;SDS011;3823;53.586;10.040;2022-08-01T07:36:09;8.95;;;7.20;;
7563;SDS011;3823;53.586;10.040;2022-08-01T07:38:35;11.43;;;7.93;;
7563;SDS011;3823;53.586;10.040;2022-08-01T07:41:01;7.85;;;6.65;;
7563;SDS011;3823;53.586;10.040;2022-08-01T07:43:27;13.65;;;7.30;;
7563;SDS011;3823;53.586;10.040;2022-08-01T07:45:53;14.75;;;7.07;;
7563;SDS011;3823;53.586;10.040;2022-08-01T07:48:18;11.80;;;6.88;;
7563;SDS011;3823;53.586;10.040;2022-08-01T07:50:45;7.68;;;5.60;;
7563;SDS011;3823;53.586;10.040;2022-08-01T07:53:11;12.88;;;6.65;;
7563;SDS011;3823;53.586;10.040;2022-08-01T07:55:36;11.73;;;6.35;;
7563;SDS011;3823;53.586;10.040;2022-08-01T07:58:02;12.90;;;6.75;;
7563;SDS011;3823;53.586;10.040;2022-08-01T08:00:28;9.90;;;6.10;;
7563;SDS011;3823;53.586;10.040;2022-08-01T08:02:53;7.88;;;4.93;;
7563;SDS011;3823;53.586;10.040;2022-08-01T08:05:19;11.27;;;4.60;;
7563;SDS011;3823;53.586;10.040;2022-08-01T08:07:45;7.30;;;4.72;;
7563;SDS011;3823;53.586;10.040;2022-08-01T08:10:10;9.43;;;4.05;;
7563;SDS011;3823;53.586;10.040;2022-08-01T08:12:36;5.78;;;3.90;;
7563;SDS011;3823;53.586;10.040;2022-08-01T08:15:02;14.38;;;4.30;;
7563;SDS011;3823;53.586;10.040;2022-08-01T08:17:30;7.38;;;2.60;;
7563;SDS011;3823;53.586;10.040;2022-08-01T08:19:56;7.57;;;3.20;;
7563;SDS011;3823;53.586;10.040;2022-08-01T08:22:22;16.17;;;3.83;;
7563;SDS011;3823;53.586;10.040;2022-08-01T08:24:48;6.25;;;2.80;;
7563;SDS011;3823;53.586;10.040;2022-08-01T08:27:13;6.00;;;3.13;;
7563;SDS011;3823;53.586;10.040;2022-08-01T08:29:40;3.78;;;2.20;;
7563;SDS011;3823;53.586;10.040;2022-08-01T08:32:06;9.60;;;2.97;;
7563;SDS011;3823;53.586;10.040;2022-08-01T08:34:33;12.25;;;2.92;;
7563;SDS011;3823;53.586;10.040;2022-08-01T08:36:59;3.70;;;2.00;;
7563;SDS011;3823;53.586;10.040;2022-08-01T08:39:24;5.20;;;2.30;;
7563;SDS011;3823;53.586;10.040;2022-08-01T08:41:50;3.67;;;2.38;;
7563;SDS011;3823;53.586;10.040;2022-08-01T08:44:17;4.93;;;3.45;;
7563;SDS011;3823;53.586;10.040;2022-08-01T08:46:45;9.15;;;2.92;;
7563;SDS011;3823;53.586;10.040;2022-08-01T08:49:19;3.42;;;2.25;;
7563;SDS011;3823;53.586;10.040;2022-08-01T08:51:51;8.77;;;2.38;;
7563;SDS011;3823;53.586;10.040;2022-08-01T08:54:18;5.50;;;2.20;;
7563;SDS011;3823;53.586;10.040;2022-08-01T08:56:47;5.00;;;2.28;;
7563;SDS011;3823;53.586;10.040;2022-08-01T08:59:13;2.90;;;2.20;;
7563;SDS011;3823;53.586;10.040;2022-08-01T09:01:40;5.43;;;2.00;;
7563;SDS011;3823;53.586;10.040;2022-08-01T09:04:06;4.68;;;2.03;;
7563;SDS011;3823;53.586;10.040;2022-08-01T09:06:32;9.50;;;2.78;;
7563;SDS011;3823;53.586;10.040;2022-08-01T09:08:58;7.80;;;2.65;;
7563;SDS011;3823;53.586;10.040;2022-08-01T09:11:25;6.53;;;3.17;;
7563;SDS011;3823;53.586;10.040;2022-08-01T09:14:04;5.72;;;2.50;;
7563;SDS011;3823;53.586;10.040;2022-08-01T09:21:54;4.32;;;1.70;;
7563;SDS011;3823;53.586;10.040;2022-08-01T09:24:25;11.60;;;2.60;;
7563;SDS011;3823;53.586;10.040;2022-08-01T09:26:52;6.80;;;2.40;;
7563;SDS011;3823;53.586;10.040;2022-08-01T09:29:20;3.08;;;1.52;;
7563;SDS011;3823;53.586;10.040;2022-08-01T09:31:48;4.30;;;1.65;;
7563;SDS011;3823;53.586;10.040;2022-08-01T09:34:24;9.93;;;2.15;;
7563;SDS011;3823;53.586;10.040;2022-08-01T09:36:56;3.80;;;1.60;;
7563;SDS011;3823;53.586;10.040;2022-08-01T09:39:27;7.60;;;2.00;;
7563;SDS011;3823;53.586;10.040;2022-08-01T09:41:59;4.47;;;2.05;;
7563;SDS011;3823;53.586;10.040;2022-08-01T09:44:39;10.00;;;2.17;;
7563;SDS011;3823;53.586;10.040;2022-08-01T09:47:06;3.47;;;1.58;;
7563;SDS011;3823;53.586;10.040;2022-08-01T09:49:33;6.65;;;2.10;;
7563;SDS011;3823;53.586;10.040;2022-08-01T09:52:11;6.50;;;1.65;;
7563;SDS011;3823;53.586;10.040;2022-08-01T09:54:42;6.03;;;1.33;;
7563;SDS011;3823;53.586;10.040;2022-08-01T09:57:09;5.85;;;1.52;;
7563;SDS011;3823;53.586;10.040;2022-08-01T09:59:40;2.50;;;1.52;;
7563;SDS011;3823;53.586;10.040;2022-08-01T10:02:11;5.75;;;2.08;;
7563;SDS011;3823;53.586;10.040;2022-08-01T10:04:50;5.18;;;1.92;;
7563;SDS011;3823;53.586;10.040;2022-08-01T10:07:17;3.85;;;1.67;;
7563;SDS011;3823;53.586;10.040;2022-08-01T10:09:44;8.05;;;1.92;;
7563;SDS011;3823;53.586;10.040;2022-08-01T10:12:11;3.90;;;1.80;;
7563;SDS011;3823;53.586;10.040;2022-08-01T10:14:49;6.88;;;2.20;;
7563;SDS011;3823;53.586;10.040;2022-08-01T10:17:16;4.00;;;2.53;;
7563;SDS011;3823;53.586;10.040;2022-08-01T10:19:43;4.20;;;1.98;;
7563;SDS011;3823;53.586;10.040;2022-08-01T10:22:10;5.03;;;2.55;;
7563;SDS011;3823;53.586;10.040;2022-08-01T10:24:43;4.13;;;1.90;;
7563;SDS011;3823;53.586;10.040;2022-08-01T10:27:11;4.93;;;2.95;;
7563;SDS011;3823;53.586;10.040;2022-08-01T10:29:47;5.95;;;2.38;;
7563;SDS011;3823;53.586;10.040;2022-08-01T10:32:17;6.07;;;2.78;;
7563;SDS011;3823;53.586;10.040;2022-08-01T10:34:43;9.15;;;2.50;;
7563;SDS011;3823;53.586;10.040;2022-08-01T10:37:09;8.43;;;2.85;;
7563;SDS011;3823;53.586;10.040;2022-08-01T10:39:35;10.27;;;2.88;;
7563;SDS011;3823;53.586;10.040;2022-08-01T10:42:04;5.15;;;2.33;;
7563;SDS011;3823;53.586;10.040;2022-08-01T10:44:34;7.63;;;2.47;;
7563;SDS011;3823;53.586;10.040;2022-08-01T10:47:06;3.75;;;2.10;;
7563;SDS011;3823;53.586;10.040;2022-08-01T10:49:37;3.85;;;1.92;;
7563;SDS011;3823;53.586;10.040;2022-08-01T10:52:15;5.63;;;2.13;;
7563;SDS011;3823;53.586;10.040;2022-08-01T10:54:41;3.88;;;1.52;;
7563;SDS011;3823;53.586;10.040;2022-08-01T10:57:07;6.93;;;2.58;;
7563;SDS011;3823;53.586;10.040;2022-08-01T10:59:32;10.65;;;2.35;;
7563;SDS011;3823;53.586;10.040;2022-08-01T11:02:04;3.35;;;1.70;;
7563;SDS011;3823;53.586;10.040;2022-08-01T11:07:06;6.50;;;1.45;;
7563;SDS011;3823;53.586;10.040;2022-08-01T11:09:40;6.78;;;1.75;;
7563;SDS011;3823;53.586;10.040;2022-08-01T11:12:11;3.90;;;1.40;;
7563;SDS011;3823;53.586;10.040;2022-08-01T11:20:08;4.47;;;1.70;;
7563;SDS011;3823;53.586;10.040;2022-08-01T11:38:39;2.92;;;1.48;;
7563;SDS011;3823;53.586;10.040;2022-08-01T11:41:10;3.97;;;1.63;;
7563;SDS011;3823;53.586;10.040;2022-08-01T11:54:48;4.55;;;1.27;;
7563;SDS011;3823;53.586;10.040;2022-08-01T11:57:18;3.20;;;1.25;;
7563;SDS011;3823;53.586;10.040;2022-08-01T11:59:52;2.50;;;1.10;;
7563;SDS011;3823;53.586;10.040;2022-08-01T12:02:20;3.38;;;1.35;;
7563;SDS011;3823;53.586;10.040;2022-08-01T12:04:59;3.42;;;1.73;;
7563;SDS011;3823;53.586;10.040;2022-08-01T12:07:33;2.28;;;1.20;;
7563;SDS011;3823;53.586;10.040;2022-08-01T12:10:07;6.30;;;1.55;;
7563;SDS011;3823;53.586;10.040;2022-08-01T12:12:43;3.33;;;1.10;;
7563;SDS011;3823;53.586;10.040;2022-08-01T12:15:16;1.95;;;1.20;;
7563;SDS011;3823;53.586;10.040;2022-08-01T12:17:44;2.70;;;1.30;;
7563;SDS011;3823;53.586;10.040;2022-08-01T12:20:12;4.60;;;1.27;;
7563;SDS011;3823;53.586;10.040;2022-08-01T12:22:40;2.97;;;1.38;;
7563;SDS011;3823;53.586;10.040;2022-08-01T12:25:10;5.85;;;1.05;;
7563;SDS011;3823;53.586;10.040;2022-08-01T12:27:38;2.28;;;1.23;;
7563;SDS011;3823;53.586;10.040;2022-08-01T12:30:06;4.22;;;1.15;;
7563;SDS011;3823;53.586;10.040;2022-08-01T12:32:34;2.92;;;1.30;;
7563;SDS011;3823;53.586;10.040;2022-08-01T12:35:05;2.92;;;1.30;;
7563;SDS011;3823;53.586;10.040;2022-08-01T12:37:36;6.47;;;1.48;;
7563;SDS011;3823;53.586;10.040;2022-08-01T12:40:12;2.47;;;1.10;;
7563;SDS011;3823;53.586;10.040;2022-08-01T12:42:44;7.93;;;1.63;;
7563;SDS011;3823;53.586;10.040;2022-08-01T12:45:12;3.13;;;1.40;;
7563;SDS011;3823;53.586;10.040;2022-08-01T12:47:46;5.45;;;1.10;;
7563;SDS011;3823;53.586;10.040;2022-08-01T12:50:13;4.20;;;0.98;;
7563;SDS011;3823;53.586;10.040;2022-08-01T12:52:42;4.75;;;1.65;;
7563;SDS011;3823;53.586;10.040;2022-08-01T12:55:24;3.28;;;1.10;;
7563;SDS011;3823;53.586;10.040;2022-08-01T12:58:03;2.47;;;1.25;;
7563;SDS011;3823;53.586;10.040;2022-08-01T13:00:33;2.67;;;1.23;;
7563;SDS011;3823;53.586;10.040;2022-08-01T13:08:19;5.22;;;1.55;;
7563;SDS011;3823;53.586;10.040;2022-08-01T13:10:46;3.70;;;1.00;;
7563;SDS011;3823;53.586;10.040;2022-08-01T13:13:13;5.30;;;1.55;;
7563;SDS011;3823;53.586;10.040;2022-08-01T13:15:41;4.82;;;1.85;;
7563;SDS011;3823;53.586;10.040;2022-08-01T13:18:28;2.33;;;1.33;;
7563;SDS011;3823;53.586;10.040;2022-08-01T13:21:07;5.60;;;1.38;;
7563;SDS011;3823;53.586;10.040;2022-08-01T13:29:06;2.15;;;1.30;;
7563;SDS011;3823;53.586;10.040;2022-08-01T13:31:33;8.02;;;1.48;;
7563;SDS011;3823;53.586;10.040;2022-08-01T13:33:59;3.05;;;1.17;;
7563;SDS011;3823;53.586;10.040;2022-08-01T13:36:25;3.58;;;1.08;;
7563;SDS011;3823;53.586;10.040;2022-08-01T13:38:53;3.70;;;1.08;;
7563;SDS011;3823;53.586;10.040;2022-08-01T13:41:37;2.22;;;1.30;;
7563;SDS011;3823;53.586;10.040;2022-08-01T13:44:03;6.22;;;2.42;;
7563;SDS011;3823;53.586;10.040;2022-08-01T13:46:29;3.88;;;1.75;;
7563;SDS011;3823;53.586;10.040;2022-08-01T13:48:55;3.63;;;1.30;;
7563;SDS011;3823;53.586;10.040;2022-08-01T13:51:21;4.20;;;1.45;;
7563;SDS011;3823;53.586;10.040;2022-08-01T13:53:46;4.80;;;1.20;;
7563;SDS011;3823;53.586;10.040;2022-08-01T13:56:12;2.22;;;1.10;;
7563;SDS011;3823;53.586;10.040;2022-08-01T13:58:37;1.23;;;0.85;;
7563;SDS011;3823;53.586;10.040;2022-08-01T14:01:03;2.25;;;0.85;;
7563;SDS011;3823;53.586;10.040;2022-08-01T14:03:29;2.58;;;0.95;;
7563;SDS011;3823;53.586;10.040;2022-08-01T14:05:55;2.38;;;1.08;;
7563;SDS011;3823;53.586;10.040;2022-08-01T14:08:21;5.03;;;1.50;;
7563;SDS011;3823;53.586;10.040;2022-08-01T14:10:47;1.73;;;0.90;;
7563;SDS011;3823;53.586;10.040;2022-08-01T14:13:12;3.60;;;1.25;;
7563;SDS011;3823;53.586;10.040;2022-08-01T14:15:39;2.42;;;1.20;;
7563;SDS011;3823;53.586;10.040;2022-08-01T14:18:04;4.68;;;2.38;;
7563;SDS011;3823;53.586;10.040;2022-08-01T14:20:33;7.43;;;2.03;;
7563;SDS011;3823;53.586;10.040;2022-08-01T14:22:59;4.40;;;1.30;;
7563;SDS011;3823;53.586;10.040;2022-08-01T14:25:25;2.55;;;0.90;;
7563;SDS011;3823;53.586;10.040;2022-08-01T14:27:51;2.80;;;0.98;;
7563;SDS011;3823;53.586;10.040;2022-08-01T14:30:16;2.83;;;0.85;;
7563;SDS011;3823;53.586;10.040;2022-08-01T14:32:42;3.35;;;1.33;;
7563;SDS011;3823;53.586;10.040;2022-08-01T14:35:08;3.72;;;0.95;;
7563;SDS011;3823;53.586;10.040;2022-08-01T14:37:33;1.67;;;1.20;;
7563;SDS011;3823;53.586;10.040;2022-08-01T14:39:59;3.08;;;0.98;;
7563;SDS011;3823;53.586;10.040;2022-08-01T14:42:29;2.35;;;0.70;;
7563;SDS011;3823;53.586;10.040;2022-08-01T14:44:55;2.47;;;1.00;;
7563;SDS011;3823;53.586;10.040;2022-08-01T14:47:20;4.25;;;2.00;;
7563;SDS011;3823;53.586;10.040;2022-08-01T14:49:46;2.33;;;0.90;;
7563;SDS011;3823;53.586;10.040;2022-08-01T14:52:12;2.20;;;0.95;;
7563;SDS011;3823;53.586;10.040;2022-08-01T14:54:37;3.25;;;0.98;;
7563;SDS011;3823;53.586;10.040;2022-08-01T14:57:03;5.00;;;1.55;;
7563;SDS011;3823;53.586;10.040;2022-08-01T14:59:28;4.90;;;1.20;;
7563;SDS011;3823;53.586;10.040;2022-08-01T15:01:54;6.07;;;2.75;;
7563;SDS011;3823;53.586;10.040;2022-08-01T15:04:19;1.98;;;0.82;;
7563;SDS011;3823;53.586;10.040;2022-08-01T15:06:45;4.28;;;1.08;;
7563;SDS011;3823;53.586;10.040;2022-08-01T15:09:10;3.20;;;1.48;;
7563;SDS011;3823;53.586;10.040;2022-08-01T15:11:36;6.43;;;2.10;;
7563;SDS011;3823;53.586;10.040;2022-08-01T15:14:02;3.78;;;1.35;;
7563;SDS011;3823;53.586;10.040;2022-08-01T15:16:47;3.20;;;1.20;;
7563;SDS011;3823;53.586;10.040;2022-08-01T15:19:13;10.15;;;2.28;;
7563;SDS011;3823;53.586;10.040;2022-08-01T15:21:39;3.92;;;1.05;;
7563;SDS011;3823;53.586;10.040;2022-08-01T15:24:05;2.47;;;1.33;;
7563;SDS011;3823;53.586;10.040;2022-08-01T15:26:31;14.18;;;1.80;;
7563;SDS011;3823;53.586;10.040;2022-08-01T15:28:56;2.33;;;1.55;;
7563;SDS011;3823;53.586;10.040;2022-08-01T15:31:22;3.53;;;1.10;;
7563;SDS011;3823;53.586;10.040;2022-08-01T15:33:48;2.60;;;1.58;;
7563;SDS011;3823;53.586;10.040;2022-08-01T15:36:13;5.82;;;1.90;;
7563;SDS011;3823;53.586;10.040;2022-08-01T15:38:39;3.45;;;1.95;;
7563;SDS011;3823;53.586;10.040;2022-08-01T15:41:05;3.80;;;1.92;;
7563;SDS011;3823;53.586;10.040;2022-08-01T15:43:30;5.13;;;1.40;;
7563;SDS011;3823;53.586;10.040;2022-08-01T15:45:57;8.00;;;1.52;;
7563;SDS011;3823;53.586;10.040;2022-08-01T15:48:23;2.78;;;1.60;;
7563;SDS011;3823;53.586;10.040;2022-08-01T15:50:48;3.33;;;1.85;;
7563;SDS011;3823;53.586;10.040;2022-08-01T15:53:15;3.70;;;1.75;;
7563;SDS011;3823;53.586;10.040;2022-08-01T15:55:40;3.38;;;1.65;;
7563;SDS011;3823;53.586;10.040;2022-08-01T15:58:06;7.63;;;1.85;;
7563;SDS011;3823;53.586;10.040;2022-08-01T16:00:32;5.20;;;1.52;;
7563;SDS011;3823;53.586;10.040;2022-08-01T16:02:59;2.95;;;1.38;;
7563;SDS011;3823;53.586;10.040;2022-08-01T16:05:24;4.15;;;1.55;;
7563;SDS011;3823;53.586;10.040;2022-08-01T16:07:50;5.28;;;1.67;;
7563;SDS011;3823;53.586;10.040;2022-08-01T16:10:16;5.63;;;1.52;;